Rupert, WV (25984)

7:19 PM EDT on August 30, 2015 (GMT -0400)
KWVALDER3 | | Change Station
CLOSE
Current Station
Personal Weather Station
Location: Blue Sulphur Springs, WV
Elevation: 1719 ft
Nearby Weather Stations

Elev 1719 ft 37.83 °N, 80.64 °W | Updated 11 seconds ago

Mostly Cloudy
Mostly Cloudy
73.6 °F
Feels Like 72 °F
N
0.8
Wind Variable Wind from South
Gusts 1.1 mph

Today
High -- | Low -- °F
--% Chance of Precip.
Yesterday
High -- | Low -- °F
Precip. -- in
6:50 AM 7:55 PM
Full, 98% visible
Pressure 30.19 in
Visibility 10.0 miles
Clouds Scattered Clouds 12000 ft
Heat Index 72 °F
Dew Point Not available.
Humidity Not available.
Rainfall 0.00 in
Snow Depth Not available.
UV 0 out of 12
Pollen 8.70 out of 12
Air Quality Not available.
Flu Activity Not available.
METAR KLWB 302255Z AUTO 00000KT 10SM SCT120 25/17 A3019 RMK AO2 T02460166
Pressure 30.19 in
Visibility 10.0 miles
Clouds Scattered Clouds 12000 ft
Heat Index 72 °F
Dew Point Not available.
Humidity Not available.
Rainfall 0.00 in
Snow Depth Not available.
UV 0 out of 12
Pollen 8.70 out of 12
Air Quality Not available.
Flu Activity Not available.
METAR KLWB 302255Z AUTO 00000KT 10SM SCT120 25/17 A3019 RMK AO2 T02460166

10-Day Weather Forecast

×

Almanac

Astronomy

Aug. 30, 2015 Rise Set
Actual Time
Civil Twilight
Nautical Twilight
Astronomical Twilight
Moon
Length of Visible Light
Length of Day
Tomorrow will be .
, % of the Moon is Illuminated

Today's Extremes

State Highs State Lows

Community

WunderPhotos

Upload Photos

1,851,088 photos uploaded!

WunderBlogs® & News

Nearby

Air Quality

  Air Quality AQ Index Pollutant
Not available.

Snow Depth

Station Depth Elevation

Earthquake Activity

City Distance Mag. Time & Date
Minimum magnitude displayed is 2.5.

Coastal Water Temperatures

Place Temperature

Stations

Nearby Weather Stations

Station Location Temp. Windchill Dew Point Humidity Wind Precip. Elev Updated Type